sensor_id;sensor_type;location;lat;lon;timestamp;P1;durP1;ratioP1;P2;durP2;ratioP2
54993;SDS011;40891;47.242;8.648;2022-12-18T00:01:02;50.33;;;23.37;;
54993;SDS011;40891;47.242;8.648;2022-12-18T00:03:32;51.83;;;24.80;;
54993;SDS011;40891;47.242;8.648;2022-12-18T00:06:00;50.47;;;24.23;;
54993;SDS011;40891;47.242;8.648;2022-12-18T00:08:26;49.37;;;23.37;;
54993;SDS011;40891;47.242;8.648;2022-12-18T00:10:52;48.57;;;22.00;;
54993;SDS011;40891;47.242;8.648;2022-12-18T00:13:17;52.90;;;24.40;;
54993;SDS011;40891;47.242;8.648;2022-12-18T00:15:43;52.53;;;23.77;;
54993;SDS011;40891;47.242;8.648;2022-12-18T00:18:09;53.63;;;25.30;;
54993;SDS011;40891;47.242;8.648;2022-12-18T00:20:35;51.90;;;24.10;;
54993;SDS011;40891;47.242;8.648;2022-12-18T00:23:02;56.73;;;25.33;;
54993;SDS011;40891;47.242;8.648;2022-12-18T00:25:27;56.30;;;23.70;;
54993;SDS011;40891;47.242;8.648;2022-12-18T00:27:52;51.27;;;23.23;;
54993;SDS011;40891;47.242;8.648;2022-12-18T00:30:18;55.57;;;25.20;;
54993;SDS011;40891;47.242;8.648;2022-12-18T00:32:43;52.13;;;24.60;;
54993;SDS011;40891;47.242;8.648;2022-12-18T00:35:09;50.13;;;24.17;;
54993;SDS011;40891;47.242;8.648;2022-12-18T00:37:34;48.17;;;23.50;;
54993;SDS011;40891;47.242;8.648;2022-12-18T00:39:59;46.90;;;22.93;;
54993;SDS011;40891;47.242;8.648;2022-12-18T00:42:25;51.37;;;23.73;;
54993;SDS011;40891;47.242;8.648;2022-12-18T00:45:09;48.37;;;23.93;;
54993;SDS011;40891;47.242;8.648;2022-12-18T00:47:34;51.27;;;23.67;;
54993;SDS011;40891;47.242;8.648;2022-12-18T00:50:00;47.47;;;23.37;;
54993;SDS011;40891;47.242;8.648;2022-12-18T00:52:25;50.30;;;23.43;;
54993;SDS011;40891;47.242;8.648;2022-12-18T00:54:50;49.23;;;22.43;;
54993;SDS011;40891;47.242;8.648;2022-12-18T00:57:15;46.80;;;21.97;;
54993;SDS011;40891;47.242;8.648;2022-12-18T00:59:41;49.20;;;23.87;;
54993;SDS011;40891;47.242;8.648;2022-12-18T01:02:06;48.87;;;23.80;;
54993;SDS011;40891;47.242;8.648;2022-12-18T01:04:32;48.90;;;22.17;;
54993;SDS011;40891;47.242;8.648;2022-12-18T01:06:58;50.33;;;23.43;;
54993;SDS011;40891;47.242;8.648;2022-12-18T01:09:23;48.70;;;23.33;;
54993;SDS011;40891;47.242;8.648;2022-12-18T01:11:49;52.13;;;23.07;;
54993;SDS011;40891;47.242;8.648;2022-12-18T01:14:14;50.13;;;24.10;;
54993;SDS011;40891;47.242;8.648;2022-12-18T01:16:39;44.37;;;22.43;;
54993;SDS011;40891;47.242;8.648;2022-12-18T01:19:05;50.67;;;22.23;;
54993;SDS011;40891;47.242;8.648;2022-12-18T01:21:30;43.27;;;21.70;;
54993;SDS011;40891;47.242;8.648;2022-12-18T01:23:56;46.07;;;23.03;;
54993;SDS011;40891;47.242;8.648;2022-12-18T01:26:22;49.70;;;23.20;;
54993;SDS011;40891;47.242;8.648;2022-12-18T01:28:48;46.13;;;22.87;;
54993;SDS011;40891;47.242;8.648;2022-12-18T01:31:19;46.83;;;23.00;;
54993;SDS011;40891;47.242;8.648;2022-12-18T01:33:50;45.10;;;21.53;;
54993;SDS011;40891;47.242;8.648;2022-12-18T01:36:17;46.23;;;22.93;;
54993;SDS011;40891;47.242;8.648;2022-12-18T01:38:50;47.17;;;21.63;;
54993;SDS011;40891;47.242;8.648;2022-12-18T01:41:17;44.20;;;21.57;;
54993;SDS011;40891;47.242;8.648;2022-12-18T01:43:52;48.70;;;22.70;;
54993;SDS011;40891;47.242;8.648;2022-12-18T01:46:23;47.60;;;23.73;;
54993;SDS011;40891;47.242;8.648;2022-12-18T01:48:50;49.17;;;22.77;;
54993;SDS011;40891;47.242;8.648;2022-12-18T01:51:18;46.10;;;22.03;;
54993;SDS011;40891;47.242;8.648;2022-12-18T01:53:44;45.83;;;23.77;;
54993;SDS011;40891;47.242;8.648;2022-12-18T01:56:15;45.20;;;21.67;;
54993;SDS011;40891;47.242;8.648;2022-12-18T01:58:48;49.90;;;22.40;;
54993;SDS011;40891;47.242;8.648;2022-12-18T02:01:21;49.70;;;22.63;;
54993;SDS011;40891;47.242;8.648;2022-12-18T02:03:47;46.83;;;23.40;;
54993;SDS011;40891;47.242;8.648;2022-12-18T02:06:15;41.40;;;21.53;;
54993;SDS011;40891;47.242;8.648;2022-12-18T02:11:23;47.23;;;21.97;;
54993;SDS011;40891;47.242;8.648;2022-12-18T02:17:11;44.87;;;21.30;;
54993;SDS011;40891;47.242;8.648;2022-12-18T02:22:36;46.17;;;22.47;;
54993;SDS011;40891;47.242;8.648;2022-12-18T02:25:33;44.63;;;21.70;;
54993;SDS011;40891;47.242;8.648;2022-12-18T02:28:16;44.97;;;23.27;;
54993;SDS011;40891;47.242;8.648;2022-12-18T02:30:45;43.50;;;21.07;;
54993;SDS011;40891;47.242;8.648;2022-12-18T02:33:14;43.10;;;21.13;;
54993;SDS011;40891;47.242;8.648;2022-12-18T02:35:40;42.80;;;20.47;;
54993;SDS011;40891;47.242;8.648;2022-12-18T02:38:08;48.00;;;21.37;;
54993;SDS011;40891;47.242;8.648;2022-12-18T02:40:34;46.43;;;22.20;;
54993;SDS011;40891;47.242;8.648;2022-12-18T02:43:06;43.23;;;20.73;;
54993;SDS011;40891;47.242;8.648;2022-12-18T02:45:32;39.57;;;18.73;;
54993;SDS011;40891;47.242;8.648;2022-12-18T02:47:58;40.03;;;19.13;;
54993;SDS011;40891;47.242;8.648;2022-12-18T02:50:29;35.13;;;17.10;;
54993;SDS011;40891;47.242;8.648;2022-12-18T02:53:22;38.77;;;17.43;;
54993;SDS011;40891;47.242;8.648;2022-12-18T02:56:03;42.80;;;20.60;;
54993;SDS011;40891;47.242;8.648;2022-12-18T02:58:37;46.53;;;22.00;;
54993;SDS011;40891;47.242;8.648;2022-12-18T03:01:10;47.87;;;21.37;;
54993;SDS011;40891;47.242;8.648;2022-12-18T03:03:43;45.43;;;21.03;;
54993;SDS011;40891;47.242;8.648;2022-12-18T03:06:26;49.17;;;23.10;;
54993;SDS011;40891;47.242;8.648;2022-12-18T03:08:59;46.77;;;21.87;;
54993;SDS011;40891;47.242;8.648;2022-12-18T03:11:30;41.50;;;20.33;;
54993;SDS011;40891;47.242;8.648;2022-12-18T03:14:16;47.77;;;21.93;;
54993;SDS011;40891;47.242;8.648;2022-12-18T03:16:45;44.20;;;21.70;;
54993;SDS011;40891;47.242;8.648;2022-12-18T03:19:15;46.50;;;22.07;;
54993;SDS011;40891;47.242;8.648;2022-12-18T03:21:47;45.20;;;20.60;;
54993;SDS011;40891;47.242;8.648;2022-12-18T03:24:16;42.47;;;21.00;;
54993;SDS011;40891;47.242;8.648;2022-12-18T03:26:44;47.43;;;21.40;;
54993;SDS011;40891;47.242;8.648;2022-12-18T03:29:12;45.90;;;21.73;;
54993;SDS011;40891;47.242;8.648;2022-12-18T03:31:45;47.77;;;21.50;;
54993;SDS011;40891;47.242;8.648;2022-12-18T03:34:17;45.30;;;20.80;;
54993;SDS011;40891;47.242;8.648;2022-12-18T03:36:47;46.13;;;21.93;;
54993;SDS011;40891;47.242;8.648;2022-12-18T03:39:13;42.43;;;20.23;;
54993;SDS011;40891;47.242;8.648;2022-12-18T03:41:47;42.60;;;20.77;;
54993;SDS011;40891;47.242;8.648;2022-12-18T03:44:26;46.37;;;21.53;;
54993;SDS011;40891;47.242;8.648;2022-12-18T03:49:36;50.07;;;22.50;;
54993;SDS011;40891;47.242;8.648;2022-12-18T03:52:09;50.10;;;22.23;;
54993;SDS011;40891;47.242;8.648;2022-12-18T03:54:42;48.90;;;21.73;;
54993;SDS011;40891;47.242;8.648;2022-12-18T03:57:11;46.67;;;21.77;;
54993;SDS011;40891;47.242;8.648;2022-12-18T03:59:41;48.90;;;21.47;;
54993;SDS011;40891;47.242;8.648;2022-12-18T04:02:09;46.00;;;22.67;;
54993;SDS011;40891;47.242;8.648;2022-12-18T04:04:35;50.23;;;22.77;;
54993;SDS011;40891;47.242;8.648;2022-12-18T04:07:03;49.27;;;21.73;;
54993;SDS011;40891;47.242;8.648;2022-12-18T04:09:30;49.33;;;22.57;;
54993;SDS011;40891;47.242;8.648;2022-12-18T04:11:58;47.60;;;22.37;;
54993;SDS011;40891;47.242;8.648;2022-12-18T04:14:24;49.50;;;23.47;;
54993;SDS011;40891;47.242;8.648;2022-12-18T04:16:49;46.73;;;23.07;;
54993;SDS011;40891;47.242;8.648;2022-12-18T04:19:14;50.13;;;23.20;;
54993;SDS011;40891;47.242;8.648;2022-12-18T04:21:40;48.17;;;22.30;;
54993;SDS011;40891;47.242;8.648;2022-12-18T04:24:05;46.10;;;21.13;;
54993;SDS011;40891;47.242;8.648;2022-12-18T04:26:31;52.00;;;22.57;;
54993;SDS011;40891;47.242;8.648;2022-12-18T04:28:56;51.17;;;23.73;;
54993;SDS011;40891;47.242;8.648;2022-12-18T04:31:21;45.53;;;22.57;;
54993;SDS011;40891;47.242;8.648;2022-12-18T04:33:47;50.13;;;23.37;;
54993;SDS011;40891;47.242;8.648;2022-12-18T04:36:12;54.97;;;24.10;;
54993;SDS011;40891;47.242;8.648;2022-12-18T04:38:37;48.43;;;22.73;;
54993;SDS011;40891;47.242;8.648;2022-12-18T04:41:03;51.90;;;23.50;;
54993;SDS011;40891;47.242;8.648;2022-12-18T04:43:28;50.50;;;23.60;;
54993;SDS011;40891;47.242;8.648;2022-12-18T04:46:00;49.13;;;22.63;;
54993;SDS011;40891;47.242;8.648;2022-12-18T04:48:27;51.00;;;22.13;;
54993;SDS011;40891;47.242;8.648;2022-12-18T04:50:52;49.13;;;23.03;;
54993;SDS011;40891;47.242;8.648;2022-12-18T04:53:17;47.67;;;22.53;;
54993;SDS011;40891;47.242;8.648;2022-12-18T04:55:43;46.40;;;23.17;;
54993;SDS011;40891;47.242;8.648;2022-12-18T04:58:08;50.07;;;22.67;;
54993;SDS011;40891;47.242;8.648;2022-12-18T05:00:33;52.37;;;22.07;;
54993;SDS011;40891;47.242;8.648;2022-12-18T05:03:00;44.63;;;22.20;;
54993;SDS011;40891;47.242;8.648;2022-12-18T05:05:26;50.23;;;23.23;;
54993;SDS011;40891;47.242;8.648;2022-12-18T05:07:52;50.03;;;22.40;;
54993;SDS011;40891;47.242;8.648;2022-12-18T05:10:17;52.37;;;23.50;;
54993;SDS011;40891;47.242;8.648;2022-12-18T05:12:42;45.87;;;23.47;;
54993;SDS011;40891;47.242;8.648;2022-12-18T05:15:23;48.13;;;22.60;;
54993;SDS011;40891;47.242;8.648;2022-12-18T05:17:53;45.07;;;22.47;;
54993;SDS011;40891;47.242;8.648;2022-12-18T05:20:18;48.60;;;23.00;;
54993;SDS011;40891;47.242;8.648;2022-12-18T05:22:44;46.83;;;22.00;;
54993;SDS011;40891;47.242;8.648;2022-12-18T05:25:09;46.77;;;21.33;;
54993;SDS011;40891;47.242;8.648;2022-12-18T05:27:34;46.60;;;24.43;;
54993;SDS011;40891;47.242;8.648;2022-12-18T05:30:00;50.80;;;22.90;;
54993;SDS011;40891;47.242;8.648;2022-12-18T05:32:25;49.03;;;22.90;;
54993;SDS011;40891;47.242;8.648;2022-12-18T05:34:50;45.57;;;21.73;;
54993;SDS011;40891;47.242;8.648;2022-12-18T05:37:16;50.80;;;22.13;;
54993;SDS011;40891;47.242;8.648;2022-12-18T05:39:42;49.10;;;21.50;;
54993;SDS011;40891;47.242;8.648;2022-12-18T05:42:07;49.40;;;21.83;;
54993;SDS011;40891;47.242;8.648;2022-12-18T05:44:33;47.87;;;21.70;;
54993;SDS011;40891;47.242;8.648;2022-12-18T05:46:58;47.47;;;21.17;;
54993;SDS011;40891;47.242;8.648;2022-12-18T05:49:24;53.67;;;22.13;;
54993;SDS011;40891;47.242;8.648;2022-12-18T05:51:49;46.53;;;20.90;;
54993;SDS011;40891;47.242;8.648;2022-12-18T05:54:14;49.03;;;21.10;;
54993;SDS011;40891;47.242;8.648;2022-12-18T05:56:40;46.60;;;19.67;;
54993;SDS011;40891;47.242;8.648;2022-12-18T05:59:05;48.80;;;20.70;;
54993;SDS011;40891;47.242;8.648;2022-12-18T06:01:30;47.17;;;20.13;;
54993;SDS011;40891;47.242;8.648;2022-12-18T06:03:56;44.17;;;20.97;;
54993;SDS011;40891;47.242;8.648;2022-12-18T06:06:25;46.13;;;20.17;;
54993;SDS011;40891;47.242;8.648;2022-12-18T06:08:52;44.87;;;20.67;;
54993;SDS011;40891;47.242;8.648;2022-12-18T06:11:19;45.00;;;19.93;;
54993;SDS011;40891;47.242;8.648;2022-12-18T06:13:49;42.90;;;19.67;;
54993;SDS011;40891;47.242;8.648;2022-12-18T06:16:16;44.90;;;19.07;;
54993;SDS011;40891;47.242;8.648;2022-12-18T06:18:41;46.13;;;19.57;;
54993;SDS011;40891;47.242;8.648;2022-12-18T06:21:06;40.53;;;19.60;;
54993;SDS011;40891;47.242;8.648;2022-12-18T06:23:32;48.80;;;20.33;;
54993;SDS011;40891;47.242;8.648;2022-12-18T06:25:57;45.93;;;18.97;;
54993;SDS011;40891;47.242;8.648;2022-12-18T06:28:23;41.03;;;19.07;;
54993;SDS011;40891;47.242;8.648;2022-12-18T06:30:48;48.42;;;25.08;;
54993;SDS011;40891;47.242;8.648;2022-12-18T06:33:14;42.00;;;20.33;;
54993;SDS011;40891;47.242;8.648;2022-12-18T06:35:40;46.77;;;21.43;;
54993;SDS011;40891;47.242;8.648;2022-12-18T06:38:06;43.67;;;20.70;;
54993;SDS011;40891;47.242;8.648;2022-12-18T06:40:32;42.20;;;19.80;;
54993;SDS011;40891;47.242;8.648;2022-12-18T06:42:57;42.57;;;20.63;;
54993;SDS011;40891;47.242;8.648;2022-12-18T06:45:23;45.93;;;21.17;;
54993;SDS011;40891;47.242;8.648;2022-12-18T06:47:49;48.43;;;21.13;;
54993;SDS011;40891;47.242;8.648;2022-12-18T06:50:14;45.20;;;20.53;;
54993;SDS011;40891;47.242;8.648;2022-12-18T06:52:39;45.83;;;19.90;;
54993;SDS011;40891;47.242;8.648;2022-12-18T06:55:06;46.73;;;20.60;;
54993;SDS011;40891;47.242;8.648;2022-12-18T06:57:31;50.63;;;21.27;;
54993;SDS011;40891;47.242;8.648;2022-12-18T06:59:57;45.47;;;20.63;;
54993;SDS011;40891;47.242;8.648;2022-12-18T07:02:22;43.60;;;19.53;;
54993;SDS011;40891;47.242;8.648;2022-12-18T07:04:47;47.90;;;20.60;;
54993;SDS011;40891;47.242;8.648;2022-12-18T07:07:13;46.80;;;20.43;;
54993;SDS011;40891;47.242;8.648;2022-12-18T07:09:38;39.20;;;18.20;;
54993;SDS011;40891;47.242;8.648;2022-12-18T07:12:03;41.17;;;19.07;;
54993;SDS011;40891;47.242;8.648;2022-12-18T07:14:29;42.27;;;18.20;;
54993;SDS011;40891;47.242;8.648;2022-12-18T07:16:55;41.00;;;19.13;;
54993;SDS011;40891;47.242;8.648;2022-12-18T07:19:23;38.23;;;17.97;;
54993;SDS011;40891;47.242;8.648;2022-12-18T07:21:49;40.23;;;17.80;;
54993;SDS011;40891;47.242;8.648;2022-12-18T07:24:15;34.10;;;16.77;;
54993;SDS011;40891;47.242;8.648;2022-12-18T07:26:41;38.90;;;16.93;;
54993;SDS011;40891;47.242;8.648;2022-12-18T07:29:06;42.33;;;18.30;;
54993;SDS011;40891;47.242;8.648;2022-12-18T07:31:31;37.67;;;16.93;;
54993;SDS011;40891;47.242;8.648;2022-12-18T07:33:57;35.27;;;17.73;;
54993;SDS011;40891;47.242;8.648;2022-12-18T07:36:22;41.87;;;18.43;;
54993;SDS011;40891;47.242;8.648;2022-12-18T07:38:48;38.93;;;18.50;;
54993;SDS011;40891;47.242;8.648;2022-12-18T07:41:14;36.67;;;18.40;;
54993;SDS011;40891;47.242;8.648;2022-12-18T07:43:40;40.97;;;18.40;;
54993;SDS011;40891;47.242;8.648;2022-12-18T07:46:06;36.47;;;17.00;;
54993;SDS011;40891;47.242;8.648;2022-12-18T07:48:32;39.53;;;17.63;;
54993;SDS011;40891;47.242;8.648;2022-12-18T07:51:01;38.30;;;17.47;;
54993;SDS011;40891;47.242;8.648;2022-12-18T07:53:29;44.63;;;18.83;;
54993;SDS011;40891;47.242;8.648;2022-12-18T07:55:55;41.93;;;19.47;;
54993;SDS011;40891;47.242;8.648;2022-12-18T07:58:22;44.43;;;20.23;;
54993;SDS011;40891;47.242;8.648;2022-12-18T08:00:47;40.37;;;17.67;;
54993;SDS011;40891;47.242;8.648;2022-12-18T08:03:12;46.27;;;20.47;;
54993;SDS011;40891;47.242;8.648;2022-12-18T08:05:38;40.43;;;18.37;;
54993;SDS011;40891;47.242;8.648;2022-12-18T08:08:03;40.33;;;18.97;;
54993;SDS011;40891;47.242;8.648;2022-12-18T08:10:29;40.07;;;17.60;;
54993;SDS011;40891;47.242;8.648;2022-12-18T08:12:54;38.33;;;17.90;;
54993;SDS011;40891;47.242;8.648;2022-12-18T08:15:19;42.13;;;19.37;;
54993;SDS011;40891;47.242;8.648;2022-12-18T08:17:45;40.90;;;18.87;;
54993;SDS011;40891;47.242;8.648;2022-12-18T08:20:10;37.30;;;17.90;;
54993;SDS011;40891;47.242;8.648;2022-12-18T08:22:36;45.27;;;19.97;;
54993;SDS011;40891;47.242;8.648;2022-12-18T08:25:03;42.40;;;18.43;;
54993;SDS011;40891;47.242;8.648;2022-12-18T08:27:29;41.47;;;19.33;;
54993;SDS011;40891;47.242;8.648;2022-12-18T08:29:54;41.27;;;17.97;;
54993;SDS011;40891;47.242;8.648;2022-12-18T08:32:20;44.07;;;19.17;;
54993;SDS011;40891;47.242;8.648;2022-12-18T08:34:45;41.83;;;19.90;;
54993;SDS011;40891;47.242;8.648;2022-12-18T08:37:11;45.87;;;20.43;;
54993;SDS011;40891;47.242;8.648;2022-12-18T08:39:36;40.83;;;19.00;;
54993;SDS011;40891;47.242;8.648;2022-12-18T08:42:01;41.30;;;18.50;;
54993;SDS011;40891;47.242;8.648;2022-12-18T08:44:45;41.00;;;18.73;;
54993;SDS011;40891;47.242;8.648;2022-12-18T08:47:10;43.10;;;19.70;;
54993;SDS011;40891;47.242;8.648;2022-12-18T08:49:36;44.43;;;18.57;;
54993;SDS011;40891;47.242;8.648;2022-12-18T08:52:01;40.23;;;19.53;;
54993;SDS011;40891;47.242;8.648;2022-12-18T08:54:28;38.80;;;18.13;;
54993;SDS011;40891;47.242;8.648;2022-12-18T08:56:54;43.27;;;20.47;;
54993;SDS011;40891;47.242;8.648;2022-12-18T08:59:19;41.20;;;18.73;;
54993;SDS011;40891;47.242;8.648;2022-12-18T09:01:45;45.23;;;20.07;;
54993;SDS011;40891;47.242;8.648;2022-12-18T09:04:11;46.67;;;21.37;;
54993;SDS011;40891;47.242;8.648;2022-12-18T09:06:37;44.93;;;20.70;;
54993;SDS011;40891;47.242;8.648;2022-12-18T09:09:03;42.70;;;18.97;;
54993;SDS011;40891;47.242;8.648;2022-12-18T09:11:29;41.30;;;19.13;;
54993;SDS011;40891;47.242;8.648;2022-12-18T09:13:55;46.53;;;20.03;;
54993;SDS011;40891;47.242;8.648;2022-12-18T09:16:22;40.83;;;18.33;;
54993;SDS011;40891;47.242;8.648;2022-12-18T09:18:49;45.27;;;19.93;;
54993;SDS011;40891;47.242;8.648;2022-12-18T09:21:15;44.50;;;19.80;;
54993;SDS011;40891;47.242;8.648;2022-12-18T09:23:42;45.17;;;20.37;;
54993;SDS011;40891;47.242;8.648;2022-12-18T09:26:08;45.63;;;19.93;;
54993;SDS011;40891;47.242;8.648;2022-12-18T09:28:34;42.93;;;20.37;;
54993;SDS011;40891;47.242;8.648;2022-12-18T09:31:03;37.17;;;18.47;;
54993;SDS011;40891;47.242;8.648;2022-12-18T09:33:30;35.10;;;16.70;;
54993;SDS011;40891;47.242;8.648;2022-12-18T09:35:55;40.97;;;19.63;;
54993;SDS011;40891;47.242;8.648;2022-12-18T09:38:21;38.07;;;17.23;;
54993;SDS011;40891;47.242;8.648;2022-12-18T09:40:49;34.70;;;16.80;;
54993;SDS011;40891;47.242;8.648;2022-12-18T09:43:19;31.03;;;15.07;;
54993;SDS011;40891;47.242;8.648;2022-12-18T09:45:51;38.60;;;15.67;;
54993;SDS011;40891;47.242;8.648;2022-12-18T09:48:23;35.57;;;16.90;;
54993;SDS011;40891;47.242;8.648;2022-12-18T09:50:55;30.47;;;14.43;;
54993;SDS011;40891;47.242;8.648;2022-12-18T09:53:31;34.67;;;15.57;;
54993;SDS011;40891;47.242;8.648;2022-12-18T09:56:03;33.80;;;14.70;;
54993;SDS011;40891;47.242;8.648;2022-12-18T09:58:40;29.33;;;13.20;;
54993;SDS011;40891;47.242;8.648;2022-12-18T10:01:14;30.70;;;14.70;;
54993;SDS011;40891;47.242;8.648;2022-12-18T10:03:43;30.13;;;14.93;;
54993;SDS011;40891;47.242;8.648;2022-12-18T10:14:50;26.47;;;13.40;;
54993;SDS011;40891;47.242;8.648;2022-12-18T10:17:41;32.53;;;14.50;;
54993;SDS011;40891;47.242;8.648;2022-12-18T10:20:36;33.13;;;14.80;;
54993;SDS011;40891;47.242;8.648;2022-12-18T10:23:12;25.83;;;13.10;;
54993;SDS011;40891;47.242;8.648;2022-12-18T10:28:16;26.43;;;11.57;;
54993;SDS011;40891;47.242;8.648;2022-12-18T10:30:43;26.27;;;11.87;;
54993;SDS011;40891;47.242;8.648;2022-12-18T10:33:12;32.83;;;13.50;;
54993;SDS011;40891;47.242;8.648;2022-12-18T10:35:41;28.20;;;12.77;;
54993;SDS011;40891;47.242;8.648;2022-12-18T10:40:47;31.17;;;14.63;;
54993;SDS011;40891;47.242;8.648;2022-12-18T10:43:28;28.27;;;13.33;;
54993;SDS011;40891;47.242;8.648;2022-12-18T10:48:40;28.30;;;13.33;;
54993;SDS011;40891;47.242;8.648;2022-12-18T10:51:18;30.23;;;13.80;;
54993;SDS011;40891;47.242;8.648;2022-12-18T10:54:14;26.33;;;13.07;;
54993;SDS011;40891;47.242;8.648;2022-12-18T10:56:42;30.53;;;13.10;;
54993;SDS011;40891;47.242;8.648;2022-12-18T10:59:09;28.03;;;12.97;;
54993;SDS011;40891;47.242;8.648;2022-12-18T11:07:00;27.33;;;13.43;;
54993;SDS011;40891;47.242;8.648;2022-12-18T11:09:33;26.43;;;12.83;;
54993;SDS011;40891;47.242;8.648;2022-12-18T11:12:01;30.40;;;13.70;;
54993;SDS011;40891;47.242;8.648;2022-12-18T11:14:30;32.17;;;15.10;;
54993;SDS011;40891;47.242;8.648;2022-12-18T11:16:59;30.47;;;14.73;;
54993;SDS011;40891;47.242;8.648;2022-12-18T11:22:00;29.13;;;13.47;;
54993;SDS011;40891;47.242;8.648;2022-12-18T11:24:29;31.67;;;14.33;;
54993;SDS011;40891;47.242;8.648;2022-12-18T11:26:57;30.47;;;14.67;;
54993;SDS011;40891;47.242;8.648;2022-12-18T11:29:30;31.30;;;15.20;;
54993;SDS011;40891;47.242;8.648;2022-12-18T11:34:39;32.20;;;15.80;;
54993;SDS011;40891;47.242;8.648;2022-12-18T11:37:11;35.33;;;15.43;;
54993;SDS011;40891;47.242;8.648;2022-12-18T11:42:41;30.47;;;14.80;;
54993;SDS011;40891;47.242;8.648;2022-12-18T11:48:02;30.60;;;14.27;;
54993;SDS011;40891;47.242;8.648;2022-12-18T11:53:26;30.03;;;14.00;;
54993;SDS011;40891;47.242;8.648;2022-12-18T11:55:59;31.17;;;14.30;;
54993;SDS011;40891;47.242;8.648;2022-12-18T11:58:47;31.77;;;14.80;;
54993;SDS011;40891;47.242;8.648;2022-12-18T12:01:28;29.03;;;14.13;;
54993;SDS011;40891;47.242;8.648;2022-12-18T12:04:00;33.13;;;13.53;;
54993;SDS011;40891;47.242;8.648;2022-12-18T12:18:00;30.60;;;14.23;;
54993;SDS011;40891;47.242;8.648;2022-12-18T12:34:23;32.17;;;14.43;;
54993;SDS011;40891;47.242;8.648;2022-12-18T12:39:42;31.43;;;14.87;;
54993;SDS011;40891;47.242;8.648;2022-12-18T12:42:19;31.83;;;14.63;;
54993;SDS011;40891;47.242;8.648;2022-12-18T12:45:13;31.27;;;14.10;;
54993;SDS011;40891;47.242;8.648;2022-12-18T12:47:43;34.40;;;16.23;;
54993;SDS011;40891;47.242;8.648;2022-12-18T12:50:16;35.23;;;15.60;;
54993;SDS011;40891;47.242;8.648;2022-12-18T12:52:52;34.03;;;15.50;;
54993;SDS011;40891;47.242;8.648;2022-12-18T12:55:23;41.00;;;14.90;;
54993;SDS011;40891;47.242;8.648;2022-12-18T12:57:54;34.37;;;15.50;;
54993;SDS011;40891;47.242;8.648;2022-12-18T13:00:50;34.47;;;16.30;;
54993;SDS011;40891;47.242;8.648;2022-12-18T13:06:08;32.80;;;15.67;;
54993;SDS011;40891;47.242;8.648;2022-12-18T13:11:40;32.57;;;15.57;;
54993;SDS011;40891;47.242;8.648;2022-12-18T13:14:29;34.70;;;16.60;;
54993;SDS011;40891;47.242;8.648;2022-12-18T13:19:49;36.30;;;15.43;;
54993;SDS011;40891;47.242;8.648;2022-12-18T13:22:23;31.33;;;14.30;;
54993;SDS011;40891;47.242;8.648;2022-12-18T13:28:02;31.00;;;14.83;;
54993;SDS011;40891;47.242;8.648;2022-12-18T13:35:42;33.20;;;15.33;;
54993;SDS011;40891;47.242;8.648;2022-12-18T13:38:37;36.33;;;15.53;;
54993;SDS011;40891;47.242;8.648;2022-12-18T13:43:39;35.23;;;15.93;;
54993;SDS011;40891;47.242;8.648;2022-12-18T13:46:18;37.97;;;16.67;;
54993;SDS011;40891;47.242;8.648;2022-12-18T13:49:13;36.53;;;16.17;;
54993;SDS011;40891;47.242;8.648;2022-12-18T13:51:42;31.90;;;14.90;;
54993;SDS011;40891;47.242;8.648;2022-12-18T13:54:30;36.40;;;16.50;;
54993;SDS011;40891;47.242;8.648;2022-12-18T13:56:59;33.17;;;16.17;;
54993;SDS011;40891;47.242;8.648;2022-12-18T13:59:26;38.83;;;15.67;;
54993;SDS011;40891;47.242;8.648;2022-12-18T14:01:59;32.30;;;15.27;;
54993;SDS011;40891;47.242;8.648;2022-12-18T14:04:31;39.57;;;17.53;;
54993;SDS011;40891;47.242;8.648;2022-12-18T14:07:05;35.77;;;17.17;;
54993;SDS011;40891;47.242;8.648;2022-12-18T14:09:43;37.33;;;16.37;;
54993;SDS011;40891;47.242;8.648;2022-12-18T14:12:18;36.73;;;16.67;;
54993;SDS011;40891;47.242;8.648;2022-12-18T14:15:06;38.83;;;16.17;;
54993;SDS011;40891;47.242;8.648;2022-12-18T14:17:53;32.73;;;16.30;;
54993;SDS011;40891;47.242;8.648;2022-12-18T14:20:22;35.60;;;16.20;;
54993;SDS011;40891;47.242;8.648;2022-12-18T14:22:49;42.37;;;18.27;;
54993;SDS011;40891;47.242;8.648;2022-12-18T14:25:17;35.17;;;16.37;;
54993;SDS011;40891;47.242;8.648;2022-12-18T14:27:48;39.63;;;17.87;;
54993;SDS011;40891;47.242;8.648;2022-12-18T14:30:36;39.23;;;17.60;;
54993;SDS011;40891;47.242;8.648;2022-12-18T14:33:05;39.87;;;18.30;;
54993;SDS011;40891;47.242;8.648;2022-12-18T14:35:32;44.60;;;20.90;;
54993;SDS011;40891;47.242;8.648;2022-12-18T14:41:17;38.23;;;16.33;;
54993;SDS011;40891;47.242;8.648;2022-12-18T14:43:46;36.03;;;16.43;;
54993;SDS011;40891;47.242;8.648;2022-12-18T14:48:57;37.97;;;16.30;;
54993;SDS011;40891;47.242;8.648;2022-12-18T14:51:31;41.53;;;17.67;;
54993;SDS011;40891;47.242;8.648;2022-12-18T14:53:59;38.23;;;16.70;;
54993;SDS011;40891;47.242;8.648;2022-12-18T14:56:36;39.17;;;17.47;;
54993;SDS011;40891;47.242;8.648;2022-12-18T14:59:21;36.70;;;15.30;;
54993;SDS011;40891;47.242;8.648;2022-12-18T15:04:44;33.83;;;15.43;;
54993;SDS011;40891;47.242;8.648;2022-12-18T15:07:20;36.47;;;15.87;;
54993;SDS011;40891;47.242;8.648;2022-12-18T15:12:34;35.70;;;15.40;;
54993;SDS011;40891;47.242;8.648;2022-12-18T15:15:03;38.97;;;16.13;;
54993;SDS011;40891;47.242;8.648;2022-12-18T15:17:30;40.70;;;17.33;;
54993;SDS011;40891;47.242;8.648;2022-12-18T15:20:00;37.17;;;16.33;;
54993;SDS011;40891;47.242;8.648;2022-12-18T15:22:34;35.97;;;15.93;;
54993;SDS011;40891;47.242;8.648;2022-12-18T15:25:01;35.13;;;15.77;;
54993;SDS011;40891;47.242;8.648;2022-12-18T15:27:45;34.37;;;14.00;;
54993;SDS011;40891;47.242;8.648;2022-12-18T15:32:42;30.57;;;14.03;;
54993;SDS011;40891;47.242;8.648;2022-12-18T15:37:38;34.47;;;15.00;;
54993;SDS011;40891;47.242;8.648;2022-12-18T15:40:03;32.50;;;14.47;;
54993;SDS011;40891;47.242;8.648;2022-12-18T15:42:29;40.70;;;16.27;;
54993;SDS011;40891;47.242;8.648;2022-12-18T15:45:14;41.17;;;17.83;;
54993;SDS011;40891;47.242;8.648;2022-12-18T15:47:39;42.53;;;16.90;;
54993;SDS011;40891;47.242;8.648;2022-12-18T15:50:06;48.27;;;17.20;;
54993;SDS011;40891;47.242;8.648;2022-12-18T15:52:32;39.60;;;17.97;;
54993;SDS011;40891;47.242;8.648;2022-12-18T15:55:08;39.20;;;17.10;;
54993;SDS011;40891;47.242;8.648;2022-12-18T15:58:00;45.77;;;17.90;;
54993;SDS011;40891;47.242;8.648;2022-12-18T16:00:25;40.63;;;17.13;;
54993;SDS011;40891;47.242;8.648;2022-12-18T16:02:51;42.23;;;17.13;;
54993;SDS011;40891;47.242;8.648;2022-12-18T16:05:17;39.27;;;16.60;;
54993;SDS011;40891;47.242;8.648;2022-12-18T16:07:44;47.30;;;17.43;;
54993;SDS011;40891;47.242;8.648;2022-12-18T16:10:10;48.70;;;19.50;;
54993;SDS011;40891;47.242;8.648;2022-12-18T16:12:35;49.30;;;18.53;;
54993;SDS011;40891;47.242;8.648;2022-12-18T16:15:01;44.80;;;18.13;;
54993;SDS011;40891;47.242;8.648;2022-12-18T16:17:27;41.47;;;18.00;;
54993;SDS011;40891;47.242;8.648;2022-12-18T16:19:53;42.47;;;17.00;;
54993;SDS011;40891;47.242;8.648;2022-12-18T16:22:22;46.73;;;17.97;;
54993;SDS011;40891;47.242;8.648;2022-12-18T16:24:50;38.27;;;13.93;;